Overview Statistics Trail Chart Weather Telemetry Raw packets
 

This is the latest recevied weather packets stored in our database for station/object OE3MHU-12. If no packets are shown the sender has not sent any weather packets the latest 10 day(s).

<< 1 2 3 4 5 >>
Time Temp. Humidity Pressure Rain* Wind** Luminosity Snow
1788576168 18.89° C 67% 1014.4 hPa 0 mm - - -
1788572568 22.78° C 62% 1012.5 hPa 0 mm - - -
1788570768 22.78° C 60% 1011.9 hPa 0 mm - - -
1788568974 23.33° C - - 0 mm - - -
1788568970 23.33° C 59% 1011.7 hPa 0 mm - - -
1788567168 22.78° C 59% 1011.5 hPa 0 mm - - -
1788565368 21.11° C 64% 1011.4 hPa 0 mm - - -
1788563568 20° C 67% 1011.4 hPa 0 mm - - -
1788561769 19.44° C 68% 1011.2 hPa 0 mm - - -
1788559969 19.44° C 68% 1010.9 hPa 0 mm - - -
1788558169 20° C 67% 1010.8 hPa 0 mm - - -
1788556369 20.56° C 65% 1010.9 hPa 0 mm - - -
1788554569 21.11° C 64% 1011.1 hPa 0 mm - - -
1788552769 21.11° C 63% 1011.3 hPa 0 mm - - -
1788551545 21.67° C 62% 1011.2 hPa 0 mm - - -
1788551018 21.67° C 62% 1011.2 hPa 0 mm - - -
1788550969 21.67° C 62% 1011.2 hPa 0 mm - - -
1788549169 22.22° C 59% 1011.2 hPa 0 mm - - -
1788547369 24.44° C 53% 1011.1 hPa 0 mm - - -
1788543769 26.67° C 45% 1010.5 hPa 0 mm - - -
1788541970 27.78° C 43% 1010.4 hPa 0 mm - - -
1788536570 29.44° C 39% 1011.3 hPa 0 mm - - -
1788534770 30° C 40% 1011.6 hPa 0 mm - - -
1788531170 30° C 41% 1012.6 hPa 0 mm - - -
1788529370 30° C 42% 1013 hPa 0 mm - - -

* Rain latest hour (hover to see other rain measurements)
** Current wind speed in m/s (hover to see current wind gust speed)